Time;durP1;ratioP1;P1;durP2;ratioP2;P2;SDS_P1;SDS_P2;PMS_P1;PMS_P2;Temp;Humidity;BMP_temperature;BMP_pressure;BME280_temperature;BME280_humidity;BME280_pressure;Samples;Min_cycle;Max_cycle;Signal;HPM_P1;HPM_P2
2023/12/12 00:00:06;;;;;;;2.55;1.30;;;;;;;3.34;100.00;92486.22;2105621;28;20746;-77
2023/12/12 00:01:07;;;;;;;2.30;1.38;;;;;;;3.09;100.00;92488.94;2096943;28;20020;-76
2023/12/12 00:02:09;;;;;;;2.35;1.20;;;;;;;3.16;100.00;92486.25;2098628;28;20095;-76
2023/12/12 00:03:09;;;;;;;4.78;1.20;;;;;;;3.26;100.00;92491.50;2097220;28;20107;-77
2023/12/12 00:04:10;;;;;;;1.95;1.10;;;;;;;3.26;100.00;92496.03;2101960;28;20021;-79
2023/12/12 00:05:13;;;;;;;2.38;1.30;;;;;;;3.30;100.00;92499.44;2105710;28;20024;-76
2023/12/12 00:06:14;;;;;;;1.35;1.20;;;;;;;3.27;100.00;92500.19;2111324;28;20387;-78
2023/12/12 00:07:15;;;;;;;2.25;1.20;;;;;;;3.27;100.00;92498.28;2107986;28;20118;-77
2023/12/12 00:08:16;;;;;;;1.67;1.20;;;;;;;3.32;100.00;92505.06;2089216;28;20025;-79
2023/12/12 00:09:17;;;;;;;2.95;1.50;;;;;;;3.31;100.00;92500.91;2082810;28;20466;-79
2023/12/12 00:10:18;;;;;;;3.80;1.60;;;;;;;3.28;100.00;92499.03;2099185;28;20070;-76
2023/12/12 00:11:19;;;;;;;3.00;1.52;;;;;;;3.15;100.00;92498.72;2110497;28;20683;-77
2023/12/12 00:12:20;;;;;;;2.13;1.30;;;;;;;3.21;100.00;92501.72;2114540;28;20016;-79
2023/12/12 00:13:21;;;;;;;3.42;1.25;;;;;;;3.19;100.00;92496.81;2097565;28;20020;-78
2023/12/12 00:14:22;;;;;;;0.95;0.95;;;;;;;3.14;100.00;92491.94;2095620;28;20028;-78
2023/12/12 00:15:23;;;;;;;1.40;1.08;;;;;;;3.10;100.00;92493.09;2106025;28;20059;-78
2023/12/12 00:16:24;;;;;;;1.77;1.27;;;;;;;3.13;100.00;92497.63;2103479;28;20461;-78
2023/12/12 00:17:25;;;;;;;2.25;1.15;;;;;;;3.12;100.00;92496.88;2105046;28;20420;-77
2023/12/12 00:18:26;;;;;;;1.20;1.10;;;;;;;3.01;100.00;92499.53;2089864;28;20456;-79
2023/12/12 00:19:26;;;;;;;1.67;1.10;;;;;;;2.96;100.00;92501.81;2092313;28;20020;-77
2023/12/12 00:20:27;;;;;;;3.22;1.23;;;;;;;3.14;100.00;92505.13;2105402;28;20019;-77
2023/12/12 00:21:28;;;;;;;2.28;1.13;;;;;;;3.02;100.00;92503.66;2108575;28;20020;-78
2023/12/12 00:22:29;;;;;;;1.75;1.00;;;;;;;2.92;100.00;92501.06;2097023;28;20539;-78
2023/12/12 00:23:31;;;;;;;2.72;1.20;;;;;;;2.97;100.00;92496.16;2105343;28;20020;-77
2023/12/12 00:24:31;;;;;;;2.47;1.10;;;;;;;3.00;100.00;92487.47;2104963;28;20034;-77
2023/12/12 00:25:32;;;;;;;1.48;1.25;;;;;;;3.03;100.00;92488.59;2116250;27;20027;-77
2023/12/12 00:26:33;;;;;;;1.63;1.10;;;;;;;2.96;100.00;92489.38;2113659;28;20050;-77
2023/12/12 00:27:35;;;;;;;2.33;1.60;;;;;;;2.86;100.00;92495.44;2114209;28;20011;-78
2023/12/12 00:28:39;;;;;;;2.65;1.65;;;;;;;2.88;100.00;92495.78;2114873;28;20046;-77
2023/12/12 00:29:40;;;;;;;3.33;1.67;;;;;;;2.88;100.00;92495.78;2114123;28;20027;-76
2023/12/12 00:30:41;;;;;;;3.00;1.58;;;;;;;2.83;100.00;92498.84;2105790;28;20034;-77
2023/12/12 00:31:42;;;;;;;1.80;1.50;;;;;;;2.84;100.00;92495.06;2096687;28;20022;-79
2023/12/12 00:32:43;;;;;;;4.97;1.65;;;;;;;2.77;100.00;92501.13;2102684;28;20028;-76
2023/12/12 00:33:44;;;;;;;2.00;1.35;;;;;;;2.82;100.00;92499.22;2114456;28;20025;-77
2023/12/12 00:34:45;;;;;;;2.60;1.48;;;;;;;2.79;100.00;92492.81;2114566;28;20047;-78
2023/12/12 00:35:46;;;;;;;3.60;1.48;;;;;;;2.82;100.00;92494.69;2114211;28;20030;-77
2023/12/12 00:36:47;;;;;;;1.65;1.30;;;;;;;2.84;100.00;92494.31;2105098;28;20050;-77
2023/12/12 00:37:48;;;;;;;1.63;1.40;;;;;;;2.78;100.00;92483.41;2097683;28;20017;-77
2023/12/12 00:38:49;;;;;;;1.58;1.20;;;;;;;2.77;100.00;92492.44;2105748;28;20546;-78
2023/12/12 00:39:50;;;;;;;3.72;1.30;;;;;;;2.87;100.00;92498.81;2105623;28;20034;-77
2023/12/12 00:40:52;;;;;;;1.92;1.10;;;;;;;2.75;100.00;92499.97;2115060;27;20122;-78
2023/12/12 00:41:53;;;;;;;3.08;1.30;;;;;;;2.63;100.00;92503.78;2113368;28;20019;-78
2023/12/12 00:42:54;;;;;;;1.42;1.15;;;;;;;2.62;100.00;92501.53;2113897;28;20407;-78
2023/12/12 00:43:55;;;;;;;2.42;1.20;;;;;;;2.44;100.00;92497.03;2116469;27;20713;-78
2023/12/12 00:44:56;;;;;;;2.75;1.20;;;;;;;2.49;100.00;92507.19;2114553;28;20039;-77
2023/12/12 00:45:57;;;;;;;3.47;1.27;;;;;;;2.38;100.00;92506.47;2114428;28;20016;-79
2023/12/12 00:46:57;;;;;;;3.55;1.30;;;;;;;2.42;100.00;92501.94;2114679;28;20050;-78
2023/12/12 00:47:58;;;;;;;2.65;1.27;;;;;;;2.50;100.00;92487.63;2112866;27;20038;-77
2023/12/12 00:48:59;;;;;;;1.83;1.25;;;;;;;2.46;100.00;92486.88;2114550;28;20024;-77
2023/12/12 00:50:01;;;;;;;1.45;1.35;;;;;;;2.46;100.00;92484.22;2114698;28;20019;-78
2023/12/12 00:51:02;;;;;;;1.90;1.23;;;;;;;2.43;100.00;92500.06;2113614;28;20778;-77
2023/12/12 00:52:03;;;;;;;2.78;1.40;;;;;;;2.52;100.00;92495.88;2104695;28;20020;-78
2023/12/12 00:53:04;;;;;;;4.65;1.65;;;;;;;2.61;100.00;92486.84;2113671;28;20019;-77
2023/12/12 00:54:05;;;;;;;5.28;1.60;;;;;;;2.50;100.00;92497.38;2114376;28;20075;-78
2023/12/12 00:55:06;;;;;;;4.38;1.40;;;;;;;2.38;100.00;92495.16;2113433;28;20096;-78
2023/12/12 00:56:07;;;;;;;2.17;1.35;;;;;;;2.45;100.00;92493.25;2105692;28;20024;-78
2023/12/12 00:57:08;;;;;;;2.13;1.50;;;;;;;2.41;100.00;92503.03;2109828;28;20016;-78
2023/12/12 00:58:09;;;;;;;3.83;1.25;;;;;;;2.38;100.00;92501.19;2114637;28;20022;-78
2023/12/12 00:59:10;;;;;;;2.63;1.52;;;;;;;2.40;100.00;92503.44;2113848;28;20011;-75
2023/12/12 01:00:12;;;;;;;1.50;1.20;;;;;;;2.29;100.00;92508.72;2113721;28;20057;-78
2023/12/12 01:01:16;;;;;;;2.72;1.30;;;;;;;2.29;100.00;92511.38;2114595;28;20027;-76
2023/12/12 01:02:17;;;;;;;4.88;1.50;;;;;;;2.21;100.00;92520.41;2113088;28;20023;-76
2023/12/12 01:03:17;;;;;;;1.80;1.38;;;;;;;2.24;100.00;92514.38;2113658;28;20023;-77
2023/12/12 01:04:18;;;;;;;1.40;1.27;;;;;;;2.36;100.00;92507.97;2113232;28;20024;-77
2023/12/12 01:05:19;;;;;;;4.15;1.67;;;;;;;2.39;100.00;92505.31;2104871;28;20101;-78
2023/12/12 01:06:24;;;;;;;2.20;1.27;;;;;;;2.37;100.00;92509.47;2113803;28;20033;-76
2023/12/12 01:07:25;;;;;;;5.20;1.60;;;;;;;2.31;100.00;92503.81;2110568;28;20099;-78
2023/12/12 01:08:26;;;;;;;4.53;1.38;;;;;;;2.37;100.00;92504.19;2105586;28;20028;-77
2023/12/12 01:09:28;;;;;;;3.90;1.63;;;;;;;2.33;100.00;92500.78;2105555;28;20027;-77
2023/12/12 01:10:28;;;;;;;1.98;1.40;;;;;;;2.43;100.00;92497.41;2113480;28;20038;-77
2023/12/12 01:11:29;;;;;;;2.17;1.40;;;;;;;2.39;100.00;92499.31;2114073;28;20094;-77
2023/12/12 01:12:30;;;;;;;4.22;1.30;;;;;;;2.36;100.00;92500.78;2114404;28;20423;-77
2023/12/12 01:13:31;;;;;;;2.47;1.40;;;;;;;2.36;100.00;92503.44;2112570;28;20038;-77
2023/12/12 01:14:32;;;;;;;3.60;1.40;;;;;;;2.30;100.00;92509.47;2113703;28;20019;-76
2023/12/12 01:15:33;;;;;;;4.05;1.27;;;;;;;2.32;100.00;92505.31;2113745;28;20023;-78
2023/12/12 01:16:34;;;;;;;2.15;1.40;;;;;;;2.34;100.00;92502.31;2113765;28;20020;-77
2023/12/12 01:17:35;;;;;;;3.35;1.50;;;;;;;2.50;100.00;92500.03;2114019;28;20061;-77
2023/12/12 01:18:36;;;;;;;3.45;1.38;;;;;;;2.42;100.00;92494.03;2113976;28;20653;-77
2023/12/12 01:19:37;;;;;;;2.80;1.88;;;;;;;2.40;100.00;92491.00;2114365;28;20418;-77
2023/12/12 01:20:38;;;;;;;4.13;1.48;;;;;;;2.38;100.00;92492.53;2107338;28;20107;-78
2023/12/12 01:21:39;;;;;;;2.03;1.50;;;;;;;2.23;100.00;92499.69;2102595;28;20123;-75
2023/12/12 01:22:40;;;;;;;2.13;1.45;;;;;;;2.27;100.00;92493.28;2104377;28;20020;-77
2023/12/12 01:23:54;;;;;;;3.92;1.55;;;;;;;2.33;100.00;92491.03;2112234;28;20098;-77
2023/12/12 01:24:55;;;;;;;2.90;1.55;;;;;;;2.33;100.00;92501.56;2111923;28;20083;-77
2023/12/12 01:25:56;;;;;;;3.50;1.50;;;;;;;2.34;100.00;92491.78;2114017;28;20020;-77
2023/12/12 01:26:57;;;;;;;3.40;1.52;;;;;;;2.29;100.00;92490.28;2105165;28;20044;-77
2023/12/12 01:27:58;;;;;;;4.13;1.20;;;;;;;2.11;100.00;92490.28;2104301;28;20524;-77
2023/12/12 01:29:00;;;;;;;2.67;1.50;;;;;;;2.17;100.00;92490.66;2105927;28;20088;-78
2023/12/12 01:30:01;;;;;;;2.25;1.52;;;;;;;2.17;100.00;92488.03;2096969;28;20098;-78
2023/12/12 01:31:02;;;;;;;2.63;1.55;;;;;;;2.20;100.00;92489.91;2088418;28;20021;-78
2023/12/12 01:32:04;;;;;;;2.15;1.90;;;;;;;2.22;100.00;92493.66;2089523;28;20090;-77
2023/12/12 01:33:04;;;;;;;5.18;1.55;;;;;;;2.18;100.00;92490.25;2096916;28;20045;-77
2023/12/12 01:34:05;;;;;;;1.98;1.35;;;;;;;2.13;100.00;92501.19;2097045;28;20032;-77
2023/12/12 01:35:07;;;;;;;3.80;1.70;;;;;;;2.28;100.00;92499.28;2096558;28;20020;-79
2023/12/12 01:36:08;;;;;;;1.30;1.20;;;;;;;2.29;100.00;92506.09;2104569;28;20038;-77
2023/12/12 01:37:09;;;;;;;5.65;1.77;;;;;;;2.20;100.00;92505.72;2112222;28;20026;-77
2023/12/12 01:38:10;;;;;;;3.88;1.52;;;;;;;2.20;100.00;92506.47;2113949;28;20032;-78
2023/12/12 01:39:11;;;;;;;2.53;1.58;;;;;;;2.09;100.00;92503.06;2114184;28;20102;-76
2023/12/12 01:40:12;;;;;;;3.60;1.48;;;;;;;2.12;100.00;92501.59;2113971;28;20023;-77
2023/12/12 01:41:13;;;;;;;2.70;1.60;;;;;;;2.07;100.00;92497.44;2112706;28;20051;-77
2023/12/12 01:42:14;;;;;;;4.00;1.50;;;;;;;2.05;100.00;92496.31;2102320;28;20028;-78
2023/12/12 01:43:25;;;;;;;2.72;1.50;;;;;;;2.14;100.00;92488.75;2105150;28;20369;-78
2023/12/12 01:44:26;;;;;;;2.22;1.63;;;;;;;2.09;100.00;92489.91;2113115;28;20479;-78
2023/12/12 01:45:28;;;;;;;4.63;1.50;;;;;;;2.03;100.00;92491.41;2104845;28;20077;-77
2023/12/12 01:46:31;;;;;;;2.95;1.40;;;;;;;2.02;100.00;92489.91;2104948;28;20028;-76
2023/12/12 01:47:32;;;;;;;1.83;1.20;;;;;;;2.18;100.00;92495.53;2112653;28;20729;-77
2023/12/12 01:48:34;;;;;;;2.67;1.52;;;;;;;2.10;100.00;92494.03;2110167;28;20019;-78
2023/12/12 01:49:36;;;;;;;3.08;1.50;;;;;;;2.08;100.00;92504.22;2111302;28;20020;-77
2023/12/12 01:50:36;;;;;;;4.22;1.42;;;;;;;2.13;100.00;92495.16;2113221;28;20027;-79
2023/12/12 01:51:38;;;;;;;1.52;1.00;;;;;;;2.08;100.00;92498.94;2113125;28;20023;-77
2023/12/12 01:52:39;;;;;;;2.10;1.35;;;;;;;2.11;100.00;92502.69;2113811;28;20015;-76
2023/12/12 01:53:46;;;;;;;5.20;1.50;;;;;;;2.10;100.00;92496.66;2113946;28;20685;-78
2023/12/12 01:54:49;;;;;;;5.43;1.25;;;;;;;2.09;100.00;92497.81;2109568;28;20380;-78
2023/12/12 01:55:52;;;;;;;3.38;1.23;;;;;;;2.10;100.00;92490.66;2113768;28;20019;-77
2023/12/12 01:56:54;;;;;;;3.25;1.30;;;;;;;2.02;100.00;92487.28;2111429;28;20103;-77
2023/12/12 01:57:55;;;;;;;3.28;1.20;;;;;;;1.98;100.00;92481.25;2104894;28;20028;-77
2023/12/12 01:58:57;;;;;;;1.90;1.20;;;;;;;2.05;100.00;92470.69;2096753;28;20016;-78
2023/12/12 01:59:59;;;;;;;3.65;1.60;;;;;;;2.00;100.00;92463.16;2096239;28;20381;-76
2023/12/12 02:01:00;;;;;;;3.97;1.27;;;;;;;2.03;100.00;92469.56;2096371;28;20029;-78
2023/12/12 02:02:01;;;;;;;2.20;1.38;;;;;;;2.03;100.00;92474.84;2093967;28;20028;-76
2023/12/12 02:03:02;;;;;;;1.90;1.00;;;;;;;2.06;100.00;92463.53;2104512;28;20055;-77
2023/12/12 02:04:05;;;;;;;1.60;1.08;;;;;;;2.09;100.00;92460.16;2113776;28;20023;-78
2023/12/12 02:05:07;;;;;;;2.72;1.30;;;;;;;2.13;100.00;92472.19;2096029;28;20028;-77
2023/12/12 02:06:09;;;;;;;3.50;1.27;;;;;;;2.18;100.00;92479.72;2087668;28;20539;-77
2023/12/12 02:07:12;;;;;;;1.70;1.27;;;;;;;2.10;100.00;92480.84;2096143;28;20497;-76
2023/12/12 02:08:13;;;;;;;1.70;1.15;;;;;;;2.05;100.00;92481.22;2100608;28;20365;-77
2023/12/12 02:09:15;;;;;;;2.67;1.10;;;;;;;2.14;100.00;92484.25;2105012;28;20151;-78
2023/12/12 02:10:16;;;;;;;3.47;1.20;;;;;;;2.26;100.00;92480.47;2102311;28;20031;-77
2023/12/12 02:11:18;;;;;;;3.17;1.13;;;;;;;2.24;100.00;92472.94;2101747;28;20028;-79
2023/12/12 02:12:18;;;;;;;3.22;1.30;;;;;;;2.23;100.00;92468.03;2113134;28;20513;-78
2023/12/12 02:13:20;;;;;;;2.85;1.00;;;;;;;2.15;100.00;92480.50;2113416;28;20028;-77
2023/12/12 02:14:21;;;;;;;2.15;1.15;;;;;;;2.19;100.00;92477.84;2111864;28;20114;-78
2023/12/12 02:15:23;;;;;;;4.82;1.67;;;;;;;2.20;100.00;92479.38;2113409;28;20023;-78
2023/12/12 02:16:24;;;;;;;3.28;1.08;;;;;;;2.28;100.00;92480.84;2102463;28;20017;-78
2023/12/12 02:17:25;;;;;;;3.05;1.20;;;;;;;2.25;100.00;92476.34;2104617;28;20024;-76
2023/12/12 02:18:26;;;;;;;2.00;1.65;;;;;;;2.26;100.00;92485.75;2117812;27;20015;-76
2023/12/12 02:19:28;;;;;;;3.08;1.48;;;;;;;2.27;100.00;92481.97;2107148;28;20065;-78
2023/12/12 02:20:29;;;;;;;3.35;1.30;;;;;;;2.16;100.00;92479.34;2114732;27;20015;-77
2023/12/12 02:21:30;;;;;;;3.10;1.13;;;;;;;2.04;100.00;92481.63;2108379;28;20376;-78
2023/12/12 02:22:30;;;;;;;3.28;1.40;;;;;;;2.18;100.00;92471.81;2107063;28;20028;-79
2023/12/12 02:24:54;;;;;;;1.83;1.05;;;;;;;1.50;100.00;92474.44;2130435;27;20170;-78
2023/12/12 02:25:55;;;;;;;1.55;1.27;;;;;;;1.83;100.00;92472.56;2122772;27;20027;-78
2023/12/12 02:26:56;;;;;;;2.42;1.10;;;;;;;1.93;100.00;92471.06;2116423;28;20020;-78
2023/12/12 02:27:59;;;;;;;1.58;1.10;;;;;;;1.81;100.00;92472.22;2124234;27;20383;-79
2023/12/12 02:29:01;;;;;;;1.52;1.15;;;;;;;1.86;100.00;92471.06;2124013;27;20371;-79
2023/12/12 02:30:03;;;;;;;1.80;1.20;;;;;;;1.99;100.00;92466.94;2116187;28;20027;-79
2023/12/12 02:31:04;;;;;;;4.88;1.27;;;;;;;2.03;100.00;92464.31;2117672;27;20015;-79
2023/12/12 02:32:06;;;;;;;2.05;1.10;;;;;;;2.08;100.00;92461.28;2114492;28;20449;-79
2023/12/12 02:33:07;;;;;;;4.57;1.30;;;;;;;2.08;100.00;92462.03;2118850;28;20148;-80
2023/12/12 02:34:08;;;;;;;2.63;1.38;;;;;;;2.02;100.00;92458.28;2128717;27;20064;-81
2023/12/12 02:35:09;;;;;;;1.10;1.00;;;;;;;2.15;100.00;92458.63;2120823;27;20034;-78
2023/12/12 02:36:10;;;;;;;4.90;1.60;;;;;;;2.35;100.00;92464.28;2122812;27;20427;-79
2023/12/12 02:37:17;;;;;;;2.10;1.10;;;;;;;2.37;100.00;92462.78;2120159;27;20035;-79
2023/12/12 02:38:18;;;;;;;4.25;1.30;;;;;;;2.40;100.00;92455.97;2127088;27;20026;-80
2023/12/12 02:39:19;;;;;;;1.45;0.98;;;;;;;2.38;100.00;92464.28;2105300;28;20013;-79
2023/12/12 02:40:20;;;;;;;2.13;1.00;;;;;;;2.40;100.00;92463.88;2114514;28;20020;-78
2023/12/12 02:41:21;;;;;;;1.35;1.20;;;;;;;2.28;100.00;92470.28;2118297;27;20027;-78
2023/12/12 02:42:22;;;;;;;1.45;1.10;;;;;;;2.29;100.00;92473.69;2115445;28;20042;-79
2023/12/12 02:43:23;;;;;;;2.25;1.27;;;;;;;2.30;100.00;92467.28;2112465;28;20756;-79
2023/12/12 02:44:24;;;;;;;1.42;1.17;;;;;;;2.33;100.00;92471.78;2120356;27;20019;-77
2023/12/12 02:45:25;;;;;;;2.10;1.08;;;;;;;2.32;100.00;92465.00;2125000;27;20095;-79
2023/12/12 02:46:26;;;;;;;1.60;1.02;;;;;;;2.31;100.00;92460.88;2122180;27;20027;-79
2023/12/12 02:47:27;;;;;;;3.08;1.00;;;;;;;2.30;100.00;92451.47;2125044;27;20031;-78
2023/12/12 02:48:28;;;;;;;3.75;1.10;;;;;;;2.26;100.00;92456.75;2125364;27;20023;-79
2023/12/12 02:49:29;;;;;;;2.78;1.10;;;;;;;2.34;100.00;92449.59;2123228;27;20011;-78
2023/12/12 02:50:29;;;;;;;2.38;0.98;;;;;;;2.35;100.00;92456.34;2119181;27;20023;-78
2023/12/12 02:51:31;;;;;;;2.10;1.38;;;;;;;2.45;100.00;92455.56;2120910;27;20141;-80
2023/12/12 02:52:33;;;;;;;1.92;1.00;;;;;;;2.49;100.00;92456.31;2122464;27;20023;-79
2023/12/12 02:53:34;;;;;;;2.70;0.95;;;;;;;2.62;100.00;92454.78;2125353;27;20022;-80
2023/12/12 02:54:34;;;;;;;2.45;1.23;;;;;;;2.52;100.00;92458.97;2125343;27;20007;-79
2023/12/12 02:55:35;;;;;;;4.78;1.15;;;;;;;2.47;100.00;92456.72;2123857;27;20505;-79
2023/12/12 02:56:36;;;;;;;4.05;1.17;;;;;;;2.49;100.00;92458.97;2116077;27;20027;-78
2023/12/12 02:58:04;;;;;;;3.38;1.10;;;;;;;2.48;100.00;92454.81;2116265;28;20024;-79
2023/12/12 02:59:05;;;;;;;3.08;1.35;;;;;;;2.47;100.00;92450.69;2114035;27;20023;-77
2023/12/12 03:00:06;;;;;;;2.38;1.63;;;;;;;2.41;100.00;92449.56;2119082;27;20107;-78
2023/12/12 03:01:11;;;;;;;1.50;1.13;;;;;;;2.39;100.00;92451.84;2124075;27;20015;-78
2023/12/12 03:02:12;;;;;;;1.50;1.15;;;;;;;2.36;100.00;92461.25;2120265;27;20038;-78
2023/12/12 03:03:13;;;;;;;3.00;1.20;;;;;;;2.40;100.00;92464.63;2121020;27;20027;-79
2023/12/12 03:04:14;;;;;;;2.05;1.20;;;;;;;2.41;100.00;92455.56;2121093;27;20101;-78
2023/12/12 03:05:15;;;;;;;1.02;0.93;;;;;;;2.38;100.00;92459.00;2122516;27;20746;-79
2023/12/12 03:06:17;;;;;;;1.33;1.00;;;;;;;2.41;100.00;92452.94;2122769;27;20126;-79
2023/12/12 03:07:18;;;;;;;1.35;1.23;;;;;;;2.42;100.00;92445.81;2124152;27;20100;-79
2023/12/12 03:08:19;;;;;;;3.28;1.17;;;;;;;2.43;100.00;92436.75;2116110;28;20050;-78
2023/12/12 03:09:20;;;;;;;1.40;1.30;;;;;;;2.53;100.00;92435.97;2115226;28;20026;-78
2023/12/12 03:10:21;;;;;;;3.40;1.40;;;;;;;2.41;100.00;92433.72;2123647;27;20018;-77
2023/12/12 03:11:22;;;;;;;1.75;1.52;;;;;;;2.45;100.00;92442.38;2124740;27;20019;-78
2023/12/12 03:12:24;;;;;;;1.60;1.20;;;;;;;2.56;100.00;92437.84;2122511;27;20492;-77
2023/12/12 03:13:25;;;;;;;5.30;1.40;;;;;;;2.62;100.00;92441.59;2118839;27;20160;-78
2023/12/12 03:14:28;;;;;;;3.70;1.48;;;;;;;2.52;100.00;92435.22;2121693;27;20015;-78
2023/12/12 03:15:29;;;;;;;3.20;1.33;;;;;;;2.50;100.00;92442.78;2124669;27;20023;-78
2023/12/12 03:16:31;;;;;;;2.92;1.50;;;;;;;2.54;100.00;92437.47;2114744;27;20114;-78
2023/12/12 03:17:32;;;;;;;2.60;1.30;;;;;;;2.71;100.00;92435.91;2108795;28;20024;-79
2023/12/12 03:18:33;;;;;;;4.65;1.60;;;;;;;2.75;100.00;92434.00;2097679;28;20025;-78
2023/12/12 03:19:35;;;;;;;3.05;1.33;;;;;;;2.62;100.00;92431.03;2116041;28;20607;-78
2023/12/12 03:20:36;;;;;;;3.28;1.52;;;;;;;2.56;100.00;92429.94;2120087;28;20026;-77
2023/12/12 03:21:37;;;;;;;3.38;1.80;;;;;;;2.65;100.00;92426.91;2101313;28;20361;-79
2023/12/12 03:22:38;;;;;;;3.17;1.60;;;;;;;2.77;100.00;92435.16;2102533;28;20020;-78
2023/12/12 03:23:38;;;;;;;3.35;1.33;;;;;;;2.77;100.00;92429.88;2109758;28;20023;-77
2023/12/12 03:24:39;;;;;;;4.25;1.30;;;;;;;2.86;100.00;92436.63;2111775;28;20055;-77
2023/12/12 03:25:40;;;;;;;2.90;1.30;;;;;;;2.89;100.00;92426.03;2120327;28;20068;-78
2023/12/12 03:26:41;;;;;;;3.17;1.50;;;;;;;2.86;100.00;92432.09;2120044;28;20102;-78
2023/12/12 03:27:42;;;;;;;2.30;1.38;;;;;;;2.84;100.00;92434.34;2120226;28;20452;-78
2023/12/12 03:28:43;;;;;;;3.75;1.90;;;;;;;2.87;100.00;92425.69;2116777;28;20015;-78
2023/12/12 03:29:44;;;;;;;2.33;1.20;;;;;;;3.02;100.00;92429.75;2111943;28;20653;-78
2023/12/12 03:30:45;;;;;;;3.95;1.60;;;;;;;3.01;100.00;92436.16;2118181;28;20380;-78
2023/12/12 03:31:46;;;;;;;5.53;1.90;;;;;;;2.94;100.00;92435.44;2119964;28;20019;-78
2023/12/12 03:32:47;;;;;;;3.78;1.60;;;;;;;2.96;100.00;92428.66;2119253;28;20057;-79
2023/12/12 03:33:48;;;;;;;3.10;1.58;;;;;;;3.02;100.00;92429.75;2108421;28;20548;-78
2023/12/12 03:34:49;;;;;;;2.88;1.70;;;;;;;3.03;100.00;92425.25;2102540;28;20575;-80
2023/12/12 03:35:50;;;;;;;3.10;1.67;;;;;;;3.04;100.00;92429.38;2105439;28;20031;-80
2023/12/12 03:36:53;;;;;;;3.40;1.45;;;;;;;2.97;100.00;92432.03;2101405;28;20043;-79
2023/12/12 03:37:54;;;;;;;3.20;1.67;;;;;;;2.98;100.00;92425.63;2102465;28;20046;-78
2023/12/12 03:38:55;;;;;;;6.57;1.85;;;;;;;3.02;100.00;92429.75;2112205;28;20023;-78
2023/12/12 03:39:56;;;;;;;2.22;1.48;;;;;;;2.99;100.00;92419.22;2114719;28;20767;-78
2023/12/12 03:40:57;;;;;;;3.58;1.80;;;;;;;2.89;100.00;92428.66;2113641;28;20016;-77
2023/12/12 03:41:58;;;;;;;3.30;1.55;;;;;;;2.99;100.00;92430.53;2121247;27;20474;-78
2023/12/12 03:42:58;;;;;;;2.63;1.88;;;;;;;3.05;100.00;92422.22;2121359;27;20025;-78
2023/12/12 03:43:59;;;;;;;2.83;1.90;;;;;;;3.12;100.00;92424.81;2111144;28;20028;-77
2023/12/12 03:45:00;;;;;;;5.32;1.63;;;;;;;3.15;100.00;92416.84;2114689;28;20431;-79
2023/12/12 03:46:01;;;;;;;4.38;2.00;;;;;;;3.12;100.00;92425.56;2112214;28;20024;-78
2023/12/12 03:47:02;;;;;;;3.17;1.77;;;;;;;3.02;100.00;92419.19;2113458;28;20047;-77
2023/12/12 03:48:03;;;;;;;1.98;1.73;;;;;;;3.11;100.00;92415.38;2113655;28;20098;-80
2023/12/12 03:49:06;;;;;;;3.38;1.95;;;;;;;3.16;100.00;92413.09;2106129;28;20073;-80
2023/12/12 03:50:08;;;;;;;3.72;1.65;;;;;;;3.14;100.00;92414.63;2105246;28;20043;-80
2023/12/12 03:51:12;;;;;;;3.30;1.67;;;;;;;3.05;100.00;92401.84;2104001;28;20559;-78
2023/12/12 03:52:13;;;;;;;4.80;2.47;;;;;;;3.08;100.00;92401.06;2113909;28;20097;-79
2023/12/12 03:53:14;;;;;;;4.65;1.92;;;;;;;3.05;100.00;92401.84;2112157;28;20046;-79
2023/12/12 03:54:15;;;;;;;3.28;1.80;;;;;;;3.00;100.00;92392.44;2114379;28;20444;-78
2023/12/12 03:55:16;;;;;;;7.53;2.28;;;;;;;2.99;100.00;92387.53;2105327;28;20531;-78
2023/12/12 03:56:17;;;;;;;3.25;1.65;;;;;;;3.00;100.00;92386.41;2104590;28;20086;-79
2023/12/12 03:57:20;;;;;;;8.27;2.15;;;;;;;3.03;100.00;92378.47;2106134;28;20556;-78
2023/12/12 03:58:21;;;;;;;4.25;1.90;;;;;;;3.02;100.00;92392.78;2102832;28;20085;-79
2023/12/12 03:59:22;;;;;;;3.80;2.10;;;;;;;3.07;100.00;92386.34;2103033;28;20024;-78
2023/12/12 04:00:23;;;;;;;4.28;1.70;;;;;;;3.04;100.00;92392.41;2105402;28;20024;-79
2023/12/12 04:01:24;;;;;;;2.80;2.10;;;;;;;3.05;100.00;92395.81;2101636;28;20021;-79
2023/12/12 04:02:25;;;;;;;6.82;2.33;;;;;;;2.96;100.00;92396.97;2113847;28;20424;-79
2023/12/12 04:03:26;;;;;;;2.00;1.70;;;;;;;3.11;100.00;92400.28;2115024;28;20023;-80
2023/12/12 04:04:27;;;;;;;2.03;1.50;;;;;;;3.28;100.00;92393.41;2110137;28;20542;-79
2023/12/12 04:05:28;;;;;;;4.10;1.80;;;;;;;3.24;100.00;92388.13;2114543;28;20016;-79
2023/12/12 04:06:29;;;;;;;4.40;1.80;;;;;;;3.23;100.00;92391.91;2111048;28;20651;-78
2023/12/12 04:07:30;;;;;;;3.88;1.70;;;;;;;3.11;100.00;92392.38;2111008;28;20011;-78
2023/12/12 04:08:30;;;;;;;3.17;1.75;;;;;;;3.03;100.00;92391.66;2114577;28;20082;-79
2023/12/12 04:09:31;;;;;;;5.07;1.50;;;;;;;3.07;100.00;92399.56;2110103;28;20020;-79
2023/12/12 04:10:33;;;;;;;3.10;1.60;;;;;;;3.09;100.00;92396.53;2112600;28;20027;-79
2023/12/12 04:11:33;;;;;;;1.92;1.45;;;;;;;3.15;100.00;92395.75;2113747;28;20051;-76
2023/12/12 04:12:36;;;;;;;2.83;1.75;;;;;;;3.23;100.00;92391.91;2113772;28;20015;-79
2023/12/12 04:13:37;;;;;;;4.88;2.05;;;;;;;3.18;100.00;92394.22;2105582;28;20024;-79
2023/12/12 04:14:38;;;;;;;2.33;1.77;;;;;;;3.15;100.00;92395.00;2113945;28;20019;-79
2023/12/12 04:15:39;;;;;;;3.88;2.00;;;;;;;3.07;100.00;92394.28;2113523;28;20424;-77
2023/12/12 04:16:40;;;;;;;5.93;1.75;;;;;;;3.05;100.00;92404.47;2112288;28;20016;-77
2023/12/12 04:17:42;;;;;;;5.85;2.03;;;;;;;3.07;100.00;92394.28;2113738;28;20020;-79
2023/12/12 04:18:44;;;;;;;2.67;1.70;;;;;;;3.09;100.00;92399.94;2103919;28;20031;-77
2023/12/12 04:19:44;;;;;;;4.70;1.85;;;;;;;3.05;100.00;92401.09;2113401;28;20047;-78
2023/12/12 04:20:45;;;;;;;2.75;1.88;;;;;;;3.11;100.00;92407.47;2113562;28;20065;-78
2023/12/12 04:21:46;;;;;;;6.32;1.92;;;;;;;3.11;100.00;92402.19;2104609;28;20358;-77
2023/12/12 04:22:47;;;;;;;2.45;1.73;;;;;;;3.12;100.00;92395.78;2103319;28;20041;-79
2023/12/12 04:23:48;;;;;;;2.50;1.58;;;;;;;3.17;100.00;92392.72;2106180;28;20031;-77
2023/12/12 04:24:49;;;;;;;4.00;1.85;;;;;;;3.13;100.00;92384.81;2110673;28;20047;-79
2023/12/12 04:25:50;;;;;;;2.65;1.83;;;;;;;3.14;100.00;92375.75;2113692;28;20015;-78
2023/12/12 04:26:51;;;;;;;6.78;2.10;;;;;;;2.98;100.00;92370.19;2114815;28;20023;-78
2023/12/12 04:27:52;;;;;;;3.28;1.65;;;;;;;2.97;100.00;92372.06;2114725;28;20020;-78
2023/12/12 04:28:53;;;;;;;4.57;2.00;;;;;;;2.93;100.00;92367.97;2114204;28;20078;-77
2023/12/12 04:29:54;;;;;;;8.10;2.10;;;;;;;2.80;100.00;92369.53;2112079;28;20046;-77
2023/12/12 04:30:55;;;;;;;2.55;1.52;;;;;;;3.02;100.00;92373.56;2114359;28;20015;-78
2023/12/12 04:31:56;;;;;;;4.93;2.30;;;;;;;2.96;100.00;92378.50;2109515;28;20388;-78
2023/12/12 04:32:57;;;;;;;1.70;1.40;;;;;;;3.02;100.00;92382.22;2111533;28;20020;-77
2023/12/12 04:33:58;;;;;;;3.08;1.52;;;;;;;2.95;100.00;92387.56;2103610;28;20016;-78
2023/12/12 04:35:00;;;;;;;3.30;1.65;;;;;;;3.01;100.00;92390.53;2097227;28;20040;-77
2023/12/12 04:36:03;;;;;;;3.00;1.63;;;;;;;3.11;100.00;92394.25;2105606;28;20020;-77
2023/12/12 04:37:04;;;;;;;3.05;1.63;;;;;;;3.12;100.00;92391.25;2104602;28;20043;-77
2023/12/12 04:38:05;;;;;;;1.48;1.23;;;;;;;3.12;100.00;92387.84;2113844;28;20047;-76
2023/12/12 04:39:08;;;;;;;1.95;1.58;;;;;;;2.99;100.00;92384.91;2112980;28;20030;-78
2023/12/12 04:40:09;;;;;;;1.55;1.13;;;;;;;2.98;100.00;92384.13;2112623;28;20444;-78
2023/12/12 04:41:10;;;;;;;4.10;1.60;;;;;;;2.93;100.00;92384.53;2111693;28;20026;-78
2023/12/12 04:42:13;;;;;;;2.38;1.60;;;;;;;2.98;100.00;92386.78;2113008;28;20035;-78
2023/12/12 04:43:14;;;;;;;4.85;1.63;;;;;;;2.99;100.00;92387.53;2114104;28;20479;-77
2023/12/12 04:44:15;;;;;;;3.70;1.50;;;;;;;2.92;100.00;92384.94;2110270;28;20032;-76
2023/12/12 04:45:16;;;;;;;2.17;1.63;;;;;;;2.95;100.00;92390.19;2112136;28;20023;-78
2023/12/12 04:46:18;;;;;;;3.50;1.40;;;;;;;2.86;100.00;92384.59;2103150;28;20098;-79
2023/12/12 04:47:19;;;;;;;2.40;1.20;;;;;;;2.91;100.00;92384.19;2105252;28;20502;-78
2023/12/12 04:48:20;;;;;;;3.72;1.70;;;;;;;2.98;100.00;92375.47;2105084;28;20081;-77
2023/12/12 04:49:21;;;;;;;2.70;1.48;;;;;;;3.05;100.00;92374.69;2102317;28;20020;-78
2023/12/12 04:50:22;;;;;;;4.88;1.40;;;;;;;3.15;100.00;92373.88;2113164;28;20062;-78